TimeCDT,TemperatureF,Dew PointF,Humidity,Sea Level PressureIn,VisibilityMPH,Wind Direction,Wind SpeedMPH,Gust SpeedMPH,PrecipitationIn,Events,Conditions,WindDirDegrees,DateUTC
12:54 AM,37.0,26.1,65,30.33,10.0,Calm,Calm,-,N/A,,Overcast,0,2013-03-29 05:54:00
1:54 AM,37.0,27.0,67,30.34,10.0,Calm,Calm,-,N/A,,Overcast,0,2013-03-29 06:54:00
2:54 AM,36.0,27.0,70,30.33,10.0,Calm,Calm,-,N/A,,Overcast,0,2013-03-29 07:54:00
3:54 AM,35.1,28.9,78,30.32,10.0,Calm,Calm,-,N/A,,Overcast,0,2013-03-29 08:54:00
4:54 AM,33.1,26.1,75,30.32,10.0,Calm,Calm,-,N/A,,Mostly Cloudy,0,2013-03-29 09:54:00
5:54 AM,30.9,25.0,79,30.32,10.0,Calm,Calm,-,N/A,,Partly Cloudy,0,2013-03-29 10:54:00
6:54 AM,30.0,24.1,79,30.34,10.0,ENE,3.5,-,N/A,,Partly Cloudy,60,2013-03-29 11:54:00
7:54 AM,34.0,26.1,73,30.35,10.0,Calm,Calm,-,N/A,,Clear,0,2013-03-29 12:54:00
8:54 AM,39.9,28.9,65,30.35,10.0,Calm,Calm,-,N/A,,Clear,0,2013-03-29 13:54:00
9:54 AM,43.0,25.0,49,30.35,10.0,Calm,Calm,-,N/A,,Clear,0,2013-03-29 14:54:00
10:54 AM,46.9,24.1,41,30.35,10.0,Calm,Calm,-,N/A,,Clear,0,2013-03-29 15:54:00
11:54 AM,50.0,24.1,36,30.33,10.0,NNW,3.5,-,N/A,,Clear,330,2013-03-29 16:54:00
12:54 PM,51.1,25.0,36,30.32,10.0,Variable,3.5,-,N/A,,Clear,0,2013-03-29 17:54:00
1:54 PM,53.1,27.0,37,30.30,10.0,Variable,4.6,-,N/A,,Clear,0,2013-03-29 18:54:00
2:54 PM,53.1,23.0,31,30.28,10.0,Variable,3.5,-,N/A,,Partly Cloudy,0,2013-03-29 19:54:00
3:54 PM,53.1,25.0,34,30.27,10.0,NW,8.1,-,N/A,,Partly Cloudy,310,2013-03-29 20:54:00
4:54 PM,54.0,24.1,31,30.26,10.0,WNW,3.5,-,N/A,,Clear,300,2013-03-29 21:54:00
5:54 PM,52.0,23.0,32,30.26,10.0,WNW,4.6,-,N/A,,Clear,290,2013-03-29 22:54:00
6:54 PM,46.9,23.0,39,30.26,10.0,NNW,5.8,-,N/A,,Partly Cloudy,340,2013-03-29 23:54:00
7:54 PM,43.0,25.0,49,30.26,10.0,North,4.6,-,N/A,,Partly Cloudy,360,2013-03-30 00:54:00
8:54 PM,42.1,26.1,53,30.27,10.0,ENE,5.8,-,N/A,,Clear,60,2013-03-30 01:54:00
9:54 PM,41.0,24.1,51,30.27,10.0,East,6.9,-,N/A,,Clear,80,2013-03-30 02:54:00
10:54 PM,37.9,25.0,60,30.27,10.0,East,5.8,-,N/A,,Clear,100,2013-03-30 03:54:00
11:54 PM,35.1,23.0,61,30.27,10.0,Calm,Calm,-,N/A,,Clear,0,2013-03-30 04:54:00